Aviation Digital Data Service (ADDS)

Output produced by METARs form (0651 UTC 28 August 2015)
found at http://aviationweather.gov/adds/metars/
 
KJHW 280536Z 2806/2906 00000KT 1/2SM FG VV005 
     FM281200 00000KT P6SM SKC 
     FM281600 23004KT P6SM SKC 
     FM282000 29004KT P6SM SKC 
     FM282300 VRB03KT P6SM SKC AMD LTD TO CLD VIS AND WIND